North Venice, Florida
Current Conditions -  °F | °C
As of 7:53 PM on Saturday 25 Oct 2014 (Local Time) from KSRQ Reporting Station
Clear Clear  
Wind Chill: 68°   Ceiling: Unl
Heat Index: 68°   Visibility: 10mi
Dew Point: 55°   Wind: 5mph
Humidity: 63%   Direction: 340°NNW
Pressure: 29.95"   Gusts: NA
Location:  27.166°N, 82.412°W
Report Text: KSRQ 252353Z AUTO 34004KT 10SM CLR 20/13 A2995 RMK AO2 SLP142 T02000128 10261 20200 53010
Loading
Personal Weather Stations






























Interactive Weather Map
Tropical Storm Tracking
New forecast layout! Learn more

10-Day Weather Forecast

Advertisements
Track Severe Weather on mobile